Terminal Aerodrome Forecast
Issued by NWS

Home | Current Version | Previous Version | Text Only | Print | Product List | Glossary On
Versions: 1 2 3 4 5 6 7 8 9 10 11 12 13 14
671
FTUS41 KBTV 010520
TAFRUT
TAF
KRUT 010520Z 0106/0206 VRB03KT P6SM FEW250
     FM011500 03005KT P6SM SCT250
     FM012000 13010KT P6SM SCT250
      AMD LTD TO CLD VIS AND WIND=

USA.gov is the U.S. government's official web portal to all federal, state and local government web resources and services.